Decoded Metar for DTTL (KELIBIA in TUNISIA) (IATA:N/A) | Meteo·Mobile Aviation Weather
aviador You're here:

DTTL Decoded Metar

KELIBIA in TUNISIA
Report Time2018-12-19 14:00:00
UTC Time2018-12-19 15:45:12
Flight Rules Old
Wind150° at 03 kt
W.Rank150° ranks 6
Current wind is below 150° avg. (5.5)
VisibilityN/A
Phenomena:N/A
Clouds:N/A
Expected CloudBase > 4,000 ft AGL from Temp-Dew spread
CeilingNone
Temp18°C (ISA +3)
Dew Point08°C (52% RH)
AAT16.5°C
QNH1022 hPa
Density Alt318 ft
Elevation98 ft
Report Wrong Elevation
Raw Report
METAR DTTL 191400Z AUTO 15003KT 070V200 NCD 18/08 Q1022=

Extra information for DTTL:More info

Metar Taf Metar & Taf Last 4 Metars F.Rules Stats Wind Profile Meteogram Temp Stats Airport Information Weather charts Add Link Nearby VenuesMetar ALERT Operation Metar Decoded Social comments